Terminal Aerodrome Forecast
Issued by NWS

Home | Current Version | Previous Version | Text Only | Print | Product List | Glossary On
Versions: 1 2 3 4 5 6 7 8 9 10 11 12 13 14 15
000
FTUS43 KDLH 161100
TAFHIB
TAF
KHIB 161123Z 1612/1712 10005KT P6SM OVC100
     FM161500 09012G20KT P6SM -SN FEW025 OVC050
     FM161800 08015G25KT 2SM -SN BLSN SCT007 OVC015
     FM170200 03014G23KT 4SM -SN SCT007 OVC015
     FM170900 01010KT P6SM -SN SCT007 OVC015=

USA.gov is the U.S. government's official web portal to all federal, state and local government web resources and services.